createdAt,value
2023-03-25T00:00:15.805Z,11.50
2023-03-25T00:01:18.793Z,11.40
2023-03-25T00:02:23.304Z,11.40
2023-03-25T00:03:34.060Z,11.50
2023-03-25T00:04:39.487Z,11.50
2023-03-25T00:05:41.626Z,11.50
2023-03-25T00:06:44.374Z,11.50
2023-03-25T00:07:49.127Z,11.50
2023-03-25T00:08:51.073Z,11.40
2023-03-25T00:09:52.680Z,11.40
2023-03-25T00:10:57.009Z,11.30
2023-03-25T00:11:58.723Z,11.40
2023-03-25T00:13:05.126Z,11.40
2023-03-25T00:14:06.930Z,11.30
2023-03-25T00:15:11.012Z,11.30
2023-03-25T00:16:12.721Z,11.30
2023-03-25T00:17:17.854Z,11.30
2023-03-25T00:18:21.138Z,11.20
2023-03-25T00:19:23.062Z,11.20
2023-03-25T00:20:24.707Z,11.20
2023-03-25T00:21:27.152Z,11.20
2023-03-25T00:22:28.891Z,11.20
2023-03-25T00:23:32.398Z,11.20
2023-03-25T00:24:33.965Z,11.20
2023-03-25T00:25:35.566Z,11.20
2023-03-25T00:26:42.688Z,11.20
2023-03-25T00:27:46.409Z,11.10
2023-03-25T00:28:48.433Z,11.10
2023-03-25T00:29:50.071Z,11.10
2023-03-25T00:30:53.902Z,11.10
2023-03-25T00:31:55.726Z,11.20
2023-03-25T00:32:57.727Z,11.20
2023-03-25T00:33:59.937Z,11.30
2023-03-25T00:35:01.607Z,11.20
2023-03-25T00:36:04.671Z,11.20
2023-03-25T00:37:06.435Z,11.20
2023-03-25T00:38:08.249Z,11.20
2023-03-25T00:39:10.221Z,11.20
2023-03-25T00:40:12.138Z,11.20
2023-03-25T00:41:28.580Z,11.20
2023-03-25T00:42:30.522Z,11.20
2023-03-25T00:43:32.143Z,11.20
2023-03-25T00:44:33.661Z,11.20
2023-03-25T00:45:35.356Z,11.20
2023-03-25T00:46:36.985Z,11.20
2023-03-25T00:47:38.988Z,11.20
2023-03-25T00:48:42.152Z,11.20
2023-03-25T00:49:43.752Z,11.20
2023-03-25T00:50:46.216Z,11.30
2023-03-25T00:51:52.859Z,11.30
2023-03-25T00:52:55.182Z,11.20
2023-03-25T00:54:01.123Z,11.30
2023-03-25T00:55:04.834Z,11.30
2023-03-25T00:56:07.226Z,11.30
2023-03-25T00:57:09.537Z,11.20
2023-03-25T00:58:11.152Z,11.30
2023-03-25T00:59:12.874Z,11.30
2023-03-25T01:00:17.436Z,11.40
2023-03-25T01:01:27.297Z,11.40
2023-03-25T01:02:29.046Z,11.40
2023-03-25T01:03:31.545Z,11.40
2023-03-25T01:04:34.601Z,11.20
2023-03-25T01:05:36.509Z,11.30
2023-03-25T01:06:51.756Z,11.20
2023-03-25T01:07:53.292Z,11.20
2023-03-25T01:08:57.108Z,11.20
2023-03-25T01:09:59.825Z,11.20
2023-03-25T01:11:01.335Z,11.20
2023-03-25T01:12:03.034Z,11.10
2023-03-25T01:13:04.592Z,11.10
2023-03-25T01:14:09.242Z,11.10
2023-03-25T01:15:11.562Z,11.10
2023-03-25T01:16:14.988Z,11.10
2023-03-25T01:17:17.040Z,11.00
2023-03-25T01:18:19.603Z,11.00
2023-03-25T01:19:23.329Z,11.00
2023-03-25T01:20:27.429Z,11.20
2023-03-25T01:21:29.668Z,11.10
2023-03-25T01:22:31.255Z,11.20
2023-03-25T01:23:32.958Z,11.20
2023-03-25T01:24:34.869Z,11.10
2023-03-25T01:25:37.458Z,11.10
2023-03-25T01:26:41.421Z,11.10
2023-03-25T01:27:43.019Z,11.10
2023-03-25T01:28:45.683Z,11.10
2023-03-25T01:29:47.513Z,11.00
2023-03-25T01:30:49.213Z,11.10
2023-03-25T01:31:51.648Z,11.10
2023-03-25T01:32:53.630Z,11.10
2023-03-25T01:33:57.636Z,11.10
2023-03-25T01:34:59.378Z,11.00
2023-03-25T01:36:02.234Z,11.00
2023-03-25T01:37:04.455Z,11.00
2023-03-25T01:38:06.084Z,11.00
2023-03-25T01:39:09.035Z,11.00
2023-03-25T01:40:18.412Z,11.00
2023-03-25T01:41:20.261Z,11.00
2023-03-25T01:42:21.959Z,11.00
2023-03-25T01:43:24.199Z,11.00
2023-03-25T01:44:28.100Z,11.00
2023-03-25T01:45:32.809Z,11.00
2023-03-25T01:46:39.707Z,11.00
2023-03-25T01:47:43.064Z,11.10
2023-03-25T01:48:45.159Z,11.10
2023-03-25T01:49:47.155Z,11.10
2023-03-25T01:50:57.295Z,11.10
2023-03-25T01:52:24.336Z,11.10
2023-03-25T01:53:29.532Z,11.10
2023-03-25T01:54:32.752Z,11.10
2023-03-25T01:55:35.498Z,11.20
2023-03-25T01:56:41.257Z,11.20
2023-03-25T01:57:46.130Z,11.10
2023-03-25T01:58:48.281Z,11.10
2023-03-25T01:59:51.996Z,11.20
2023-03-25T02:00:56.012Z,11.20
2023-03-25T02:02:02.550Z,11.10
2023-03-25T02:03:09.258Z,11.10
2023-03-25T02:04:12.151Z,11.00
2023-03-25T02:05:19.368Z,10.80
2023-03-25T02:06:33.481Z,10.60
2023-03-25T02:07:36.763Z,10.50
2023-03-25T02:08:41.694Z,10.50
2023-03-25T02:09:43.900Z,10.40
2023-03-25T02:10:47.015Z,10.30
2023-03-25T02:11:49.438Z,10.40
2023-03-25T02:12:51.269Z,10.30
2023-03-25T02:13:53.064Z,10.20
2023-03-25T02:14:57.456Z,10.10
2023-03-25T02:16:11.152Z,10.00
2023-03-25T02:17:29.320Z,9.90
2023-03-25T02:18:40.893Z,10.00
2023-03-25T02:20:06.701Z,10.00
2023-03-25T02:21:33.992Z,9.90
2023-03-25T02:23:03.456Z,9.90
2023-03-25T02:24:35.200Z,9.90
2023-03-25T02:25:40.690Z,9.90
2023-03-25T02:26:50.125Z,9.90
2023-03-25T02:27:55.356Z,9.90
2023-03-25T02:29:14.472Z,9.80
2023-03-25T02:30:25.705Z,9.90
2023-03-25T02:31:54.570Z,9.90
2023-03-25T02:33:04.864Z,9.80
2023-03-25T02:34:29.388Z,9.80
2023-03-25T02:36:10.555Z,9.80
2023-03-25T02:37:49.276Z,9.70
2023-03-25T02:39:14.682Z,9.70
2023-03-25T02:40:26.792Z,9.70
2023-03-25T02:41:43.142Z,9.70
2023-03-25T02:42:55.532Z,9.60
2023-03-25T02:44:09.157Z,9.70
2023-03-25T02:45:40.446Z,9.60
2023-03-25T02:46:47.810Z,9.60
2023-03-25T02:47:55.788Z,9.60
2023-03-25T02:49:05.201Z,9.60
2023-03-25T02:50:14.050Z,9.60
2023-03-25T02:51:22.129Z,9.60
2023-03-25T02:52:34.470Z,9.60
2023-03-25T02:53:37.580Z,9.60
2023-03-25T02:54:42.225Z,9.60
2023-03-25T02:55:48.057Z,9.60
2023-03-25T02:56:57.643Z,9.60
2023-03-25T02:58:01.869Z,9.60
2023-03-25T02:59:05.274Z,9.60
2023-03-25T03:00:15.869Z,9.60
2023-03-25T03:01:17.570Z,9.50
2023-03-25T03:02:25.670Z,9.50
2023-03-25T03:03:28.263Z,9.50
2023-03-25T03:04:32.804Z,9.50
2023-03-25T03:05:39.863Z,9.40
2023-03-25T03:06:43.254Z,9.40
2023-03-25T03:07:47.127Z,9.40
2023-03-25T03:08:49.218Z,9.30
2023-03-25T03:10:02.478Z,9.40
2023-03-25T03:11:15.448Z,9.30
2023-03-25T03:12:46.266Z,9.30
2023-03-25T03:13:58.036Z,9.30
2023-03-25T03:15:31.492Z,9.30
2023-03-25T03:16:50.214Z,9.20
2023-03-25T03:18:00.979Z,9.30
2023-03-25T03:19:38.571Z,9.30
2023-03-25T03:20:42.893Z,9.00
2023-03-25T03:21:54.152Z,9.00
2023-03-25T03:23:20.991Z,9.00
2023-03-25T03:24:32.569Z,9.00
2023-03-25T03:26:01.075Z,8.90
2023-03-25T03:27:26.237Z,9.00
2023-03-25T03:28:45.465Z,9.00
2023-03-25T03:29:54.205Z,9.00
2023-03-25T03:31:08.669Z,9.00
2023-03-25T03:32:18.758Z,9.00
2023-03-25T03:33:25.455Z,9.00
2023-03-25T03:34:36.581Z,9.00
2023-03-25T03:35:50.515Z,8.90
2023-03-25T03:36:55.889Z,8.90
2023-03-25T03:38:01.919Z,8.90
2023-03-25T03:39:11.097Z,8.80
2023-03-25T03:40:18.731Z,8.80
2023-03-25T03:41:24.593Z,8.80
2023-03-25T03:42:30.529Z,8.90
2023-03-25T03:43:42.471Z,8.90
2023-03-25T03:44:50.261Z,8.80
2023-03-25T03:45:56.626Z,8.90
2023-03-25T03:47:16.022Z,8.90
2023-03-25T03:48:24.664Z,8.90
2023-03-25T03:49:38.403Z,8.90
2023-03-25T03:50:46.534Z,8.90
2023-03-25T03:51:59.778Z,8.90
2023-03-25T03:53:18.351Z,8.90
2023-03-25T03:54:35.934Z,8.90
2023-03-25T03:56:04.327Z,8.90
2023-03-25T03:57:13.288Z,8.90
2023-03-25T03:58:31.574Z,8.90
2023-03-25T03:59:42.743Z,9.00
2023-03-25T04:01:10.535Z,9.00
2023-03-25T04:02:32.649Z,9.00
2023-03-25T04:03:48.784Z,9.00
2023-03-25T04:04:53.855Z,9.00
2023-03-25T04:06:08.031Z,9.10
2023-03-25T04:07:17.112Z,9.10
2023-03-25T04:08:28.792Z,9.00
2023-03-25T04:09:41.004Z,9.10
2023-03-25T04:10:53.009Z,9.00
2023-03-25T04:12:00.947Z,9.10
2023-03-25T04:13:05.909Z,9.10
2023-03-25T04:14:08.884Z,9.10
2023-03-25T04:15:12.141Z,9.10
2023-03-25T04:16:13.772Z,9.10
2023-03-25T04:17:15.425Z,9.10
2023-03-25T04:18:17.803Z,9.10
2023-03-25T04:19:19.768Z,9.10
2023-03-25T04:20:25.657Z,9.10
2023-03-25T04:21:30.109Z,9.10
2023-03-25T04:22:32.210Z,9.10
2023-03-25T04:23:34.873Z,9.10
2023-03-25T04:24:37.903Z,9.10
2023-03-25T04:25:39.777Z,9.20
2023-03-25T04:26:42.414Z,9.10
2023-03-25T04:27:49.504Z,9.20
2023-03-25T04:28:51.755Z,9.20
2023-03-25T04:29:53.820Z,9.10
2023-03-25T04:31:00.472Z,9.10
2023-03-25T04:32:02.349Z,9.10
2023-03-25T04:33:04.106Z,9.20
2023-03-25T04:34:05.772Z,9.20
2023-03-25T04:35:09.504Z,9.30
2023-03-25T04:36:11.920Z,9.20
2023-03-25T04:37:14.009Z,9.20
2023-03-25T04:38:17.109Z,9.10
2023-03-25T04:39:22.554Z,9.10
2023-03-25T04:40:25.968Z,9.10
2023-03-25T04:41:28.834Z,9.20
2023-03-25T04:42:33.083Z,9.10
2023-03-25T04:43:34.974Z,9.20
2023-03-25T04:44:40.252Z,9.10
2023-03-25T04:45:50.164Z,9.10
2023-03-25T04:46:52.946Z,9.10
2023-03-25T04:47:55.144Z,9.10
2023-03-25T04:48:57.919Z,9.10
2023-03-25T04:49:59.953Z,9.10
2023-03-25T04:51:03.509Z,9.10
2023-03-25T04:52:05.303Z,9.10
2023-03-25T04:53:07.163Z,9.00
2023-03-25T04:54:08.685Z,9.00
2023-03-25T04:55:13.016Z,8.90
2023-03-25T04:56:18.646Z,8.90
2023-03-25T04:57:20.601Z,8.80
2023-03-25T04:58:22.418Z,8.70
2023-03-25T04:59:24.412Z,8.70
2023-03-25T05:00:27.315Z,8.60
2023-03-25T05:01:32.851Z,8.60
2023-03-25T05:02:34.803Z,8.60
2023-03-25T05:03:40.096Z,8.60
2023-03-25T05:04:42.985Z,8.60
2023-03-25T05:05:44.754Z,8.50
2023-03-25T05:06:50.608Z,8.50
2023-03-25T05:07:54.983Z,8.50
2023-03-25T05:08:56.956Z,8.40
2023-03-25T05:09:58.572Z,8.50
2023-03-25T05:11:00.118Z,8.50
2023-03-25T05:12:01.948Z,8.30
2023-03-25T05:13:06.956Z,8.40
2023-03-25T05:14:13.241Z,8.30
2023-03-25T05:15:17.178Z,8.30
2023-03-25T05:16:18.801Z,8.30
2023-03-25T05:17:20.691Z,8.20
2023-03-25T05:18:22.304Z,8.20
2023-03-25T05:19:24.142Z,8.20
2023-03-25T05:20:26.289Z,8.20
2023-03-25T05:21:28.187Z,8.20
2023-03-25T05:22:30.191Z,8.20
2023-03-25T05:23:31.892Z,8.20
2023-03-25T05:24:33.506Z,8.20
2023-03-25T05:25:37.524Z,8.20
2023-03-25T05:26:41.286Z,8.20
2023-03-25T05:27:42.909Z,8.20
2023-03-25T05:28:44.472Z,8.20
2023-03-25T05:29:46.793Z,8.20
2023-03-25T05:30:48.667Z,8.10
2023-03-25T05:31:50.273Z,8.20
2023-03-25T05:32:56.593Z,8.20
2023-03-25T05:33:58.614Z,8.20
2023-03-25T05:35:01.339Z,8.30
2023-03-25T05:36:05.298Z,8.30
2023-03-25T05:37:06.779Z,8.30
2023-03-25T05:38:09.661Z,8.30
2023-03-25T05:39:11.756Z,8.30
2023-03-25T05:40:15.384Z,8.40
2023-03-25T05:41:17.910Z,8.30
2023-03-25T05:42:22.945Z,8.30
2023-03-25T05:43:25.022Z,8.30
2023-03-25T05:44:26.511Z,8.30
2023-03-25T05:45:28.127Z,8.30
2023-03-25T05:46:29.903Z,8.40
2023-03-25T05:47:31.576Z,8.40
2023-03-25T05:48:33.315Z,8.40
2023-03-25T05:49:34.925Z,8.40
2023-03-25T05:50:37.859Z,8.40
2023-03-25T05:51:39.330Z,8.40
2023-03-25T05:52:44.201Z,8.40
2023-03-25T05:53:50.459Z,8.40
2023-03-25T05:54:52.052Z,8.50
2023-03-25T05:55:53.841Z,8.40
2023-03-25T05:56:56.133Z,8.40
2023-03-25T05:57:58.864Z,8.40
2023-03-25T05:59:00.934Z,8.50
2023-03-25T06:00:04.952Z,8.50
2023-03-25T06:01:21.849Z,8.50
2023-03-25T06:02:38.913Z,8.60
2023-03-25T06:03:41.846Z,8.60
2023-03-25T06:04:44.381Z,8.60
2023-03-25T06:05:48.040Z,8.60
2023-03-25T06:06:49.771Z,8.60
2023-03-25T06:07:51.865Z,8.60
2023-03-25T06:08:53.656Z,8.70
2023-03-25T06:09:55.911Z,8.70
2023-03-25T06:11:00.874Z,8.80
2023-03-25T06:12:04.097Z,8.70
2023-03-25T06:13:06.232Z,8.70
2023-03-25T06:14:08.027Z,8.70
2023-03-25T06:15:11.246Z,8.80
2023-03-25T06:16:12.854Z,8.90
2023-03-25T06:17:19.123Z,8.90
2023-03-25T06:18:24.612Z,8.90
2023-03-25T06:19:26.764Z,8.90
2023-03-25T06:20:28.751Z,8.90
2023-03-25T06:21:34.474Z,8.90
2023-03-25T06:22:38.665Z,8.90
2023-03-25T06:23:40.338Z,8.90
2023-03-25T06:24:42.769Z,9.00
2023-03-25T06:25:44.699Z,9.00
2023-03-25T06:26:46.684Z,9.00
2023-03-25T06:27:50.612Z,9.00
2023-03-25T06:28:52.697Z,9.10
2023-03-25T06:29:54.664Z,9.00
2023-03-25T06:30:57.090Z,9.10
2023-03-25T06:31:58.789Z,9.10
2023-03-25T06:33:03.250Z,9.10
2023-03-25T06:34:05.749Z,9.20
2023-03-25T06:35:09.656Z,9.20
2023-03-25T06:36:13.601Z,9.20
2023-03-25T06:37:15.738Z,9.30
2023-03-25T06:38:17.544Z,9.30
2023-03-25T06:39:38.206Z,9.40
2023-03-25T06:40:48.371Z,9.40
2023-03-25T06:41:50.346Z,9.40
2023-03-25T06:43:00.417Z,9.50
2023-03-25T06:44:28.736Z,9.50
2023-03-25T06:45:57.871Z,9.50
2023-03-25T06:47:11.157Z,9.50
2023-03-25T06:48:23.820Z,9.50
2023-03-25T06:49:25.413Z,9.50
2023-03-25T06:50:29.692Z,9.60
2023-03-25T06:51:31.342Z,9.60
2023-03-25T06:52:33.199Z,9.60
2023-03-25T06:53:35.238Z,9.60
2023-03-25T06:54:36.809Z,9.60
2023-03-25T06:55:39.061Z,9.60
2023-03-25T06:56:41.110Z,9.60
2023-03-25T06:57:43.428Z,9.70
2023-03-25T06:58:46.549Z,9.80
2023-03-25T06:59:49.744Z,9.70
2023-03-25T07:00:55.036Z,9.70
2023-03-25T07:01:56.934Z,9.80
2023-03-25T07:02:58.723Z,9.80
2023-03-25T07:04:00.624Z,9.90
2023-03-25T07:05:02.321Z,9.90
2023-03-25T07:06:07.723Z,9.80
2023-03-25T07:07:09.928Z,9.90
2023-03-25T07:08:11.633Z,9.80
2023-03-25T07:09:13.319Z,9.80
2023-03-25T07:10:15.409Z,9.90
2023-03-25T07:11:21.730Z,9.80
2023-03-25T07:12:24.026Z,9.80
2023-03-25T07:13:26.337Z,9.90
2023-03-25T07:14:28.088Z,9.80
2023-03-25T07:15:30.067Z,9.80
2023-03-25T07:16:32.449Z,9.70
2023-03-25T07:17:34.591Z,9.80
2023-03-25T07:18:36.461Z,9.80
2023-03-25T07:19:37.988Z,9.80
2023-03-25T07:20:40.028Z,9.90
2023-03-25T07:21:47.894Z,10.00
2023-03-25T07:22:50.056Z,9.90
2023-03-25T07:23:53.080Z,9.90
2023-03-25T07:24:54.773Z,10.00
2023-03-25T07:25:57.005Z,10.10
2023-03-25T07:26:58.633Z,10.10
2023-03-25T07:28:02.958Z,10.20
2023-03-25T07:29:07.277Z,10.20
2023-03-25T07:30:09.732Z,10.20
2023-03-25T07:31:13.732Z,10.20
2023-03-25T07:32:15.416Z,10.20
2023-03-25T07:33:17.381Z,10.20
2023-03-25T07:34:19.280Z,10.20
2023-03-25T07:35:21.981Z,10.20
2023-03-25T07:36:25.352Z,10.20
2023-03-25T07:37:26.943Z,10.20
2023-03-25T07:38:28.565Z,10.20
2023-03-25T07:39:30.481Z,10.20
2023-03-25T07:40:32.204Z,10.20
2023-03-25T07:41:33.866Z,10.20
2023-03-25T07:42:54.506Z,10.20
2023-03-25T07:43:58.272Z,10.20
2023-03-25T07:45:02.160Z,10.20
2023-03-25T07:46:05.602Z,10.20
2023-03-25T07:47:07.254Z,10.10
2023-03-25T07:48:14.417Z,10.20
2023-03-25T07:49:17.339Z,10.20
2023-03-25T07:50:20.265Z,10.10
2023-03-25T07:51:22.302Z,10.00
2023-03-25T07:52:23.874Z,9.90
2023-03-25T07:53:25.775Z,9.90
2023-03-25T07:54:28.609Z,9.80
2023-03-25T07:55:30.139Z,9.80
2023-03-25T07:56:31.793Z,9.70
2023-03-25T07:57:33.762Z,9.70
2023-03-25T07:58:35.422Z,9.70
2023-03-25T07:59:37.072Z,9.80
2023-03-25T08:00:39.308Z,9.90
2023-03-25T08:01:41.268Z,10.00
2023-03-25T08:02:42.899Z,10.00
2023-03-25T08:03:44.741Z,9.90
2023-03-25T08:04:46.803Z,10.00
2023-03-25T08:05:49.313Z,10.00
2023-03-25T08:06:51.745Z,10.00
2023-03-25T08:07:53.391Z,10.10
2023-03-25T08:08:56.030Z,10.10
2023-03-25T08:09:57.718Z,10.10
2023-03-25T08:10:59.554Z,10.10
2023-03-25T08:12:01.332Z,10.20
2023-03-25T08:13:03.115Z,10.20
2023-03-25T08:14:04.653Z,10.20
2023-03-25T08:15:06.549Z,10.20
2023-03-25T08:16:12.689Z,10.30
2023-03-25T08:17:14.278Z,10.40
2023-03-25T08:18:16.093Z,10.40
2023-03-25T08:19:17.759Z,10.50
2023-03-25T08:20:19.428Z,10.50
2023-03-25T08:21:25.272Z,10.50
2023-03-25T08:22:29.745Z,10.60
2023-03-25T08:23:31.630Z,10.70
2023-03-25T08:24:33.349Z,10.70
2023-03-25T08:25:35.200Z,10.70
2023-03-25T08:26:37.616Z,10.80
2023-03-25T08:27:39.184Z,10.80
2023-03-25T08:28:41.018Z,10.80
2023-03-25T08:29:42.526Z,10.80
2023-03-25T08:30:44.753Z,10.80
2023-03-25T08:31:52.219Z,10.80
2023-03-25T08:32:54.936Z,10.90
2023-03-25T08:34:06.870Z,11.00
2023-03-25T08:35:08.906Z,11.10
2023-03-25T08:36:14.282Z,11.10
2023-03-25T08:37:16.079Z,11.10
2023-03-25T08:38:17.845Z,11.00
2023-03-25T08:39:19.404Z,10.90
2023-03-25T08:40:21.720Z,10.90
2023-03-25T08:41:24.489Z,10.70
2023-03-25T08:42:26.136Z,10.70
2023-03-25T08:43:27.843Z,10.70
2023-03-25T08:44:29.454Z,10.70
2023-03-25T08:45:32.860Z,10.70
2023-03-25T08:46:34.558Z,10.70
2023-03-25T08:47:36.521Z,10.70
2023-03-25T08:48:38.364Z,10.70
2023-03-25T08:49:40.053Z,10.80
2023-03-25T08:50:41.752Z,10.80
2023-03-25T08:51:43.455Z,10.90
2023-03-25T08:52:46.038Z,10.90
2023-03-25T08:53:47.814Z,10.90
2023-03-25T08:54:49.652Z,11.00
2023-03-25T08:55:56.001Z,10.90
2023-03-25T08:56:58.405Z,10.90
2023-03-25T08:58:04.458Z,11.00
2023-03-25T08:59:06.211Z,11.00
2023-03-25T09:00:14.519Z,10.90
2023-03-25T09:01:16.451Z,10.90
2023-03-25T09:02:18.208Z,10.90
2023-03-25T09:03:20.982Z,10.90
2023-03-25T09:04:22.606Z,11.00
2023-03-25T09:05:24.718Z,10.90
2023-03-25T09:06:26.837Z,10.90
2023-03-25T09:07:29.657Z,10.90
2023-03-25T09:08:32.857Z,10.90
2023-03-25T09:09:34.756Z,10.90
2023-03-25T09:10:38.072Z,10.90
2023-03-25T09:11:39.889Z,11.00
2023-03-25T09:12:42.045Z,11.00
2023-03-25T09:13:43.624Z,11.00
2023-03-25T09:14:45.228Z,11.10
2023-03-25T09:15:46.897Z,11.00
2023-03-25T09:16:49.124Z,11.00
2023-03-25T09:17:50.998Z,11.00
2023-03-25T09:18:52.750Z,11.10
2023-03-25T09:19:55.073Z,11.20
2023-03-25T09:21:00.974Z,11.30
2023-03-25T09:22:02.993Z,11.20
2023-03-25T09:23:04.665Z,11.20
2023-03-25T09:24:08.380Z,11.20
2023-03-25T09:25:10.765Z,11.20
2023-03-25T09:26:12.430Z,11.20
2023-03-25T09:27:14.069Z,11.10
2023-03-25T09:28:15.751Z,11.20
2023-03-25T09:29:17.346Z,11.10
2023-03-25T09:30:19.231Z,11.20
2023-03-25T09:31:20.861Z,11.00
2023-03-25T09:32:22.516Z,11.00
2023-03-25T09:33:24.518Z,11.10
2023-03-25T09:34:27.552Z,11.20
2023-03-25T09:35:29.392Z,11.20
2023-03-25T09:36:32.083Z,11.20
2023-03-25T09:37:34.203Z,11.30
2023-03-25T09:38:36.273Z,11.30
2023-03-25T09:39:37.993Z,11.40
2023-03-25T09:40:43.995Z,11.50
2023-03-25T09:42:22.425Z,11.50
2023-03-25T09:43:53.766Z,11.60
2023-03-25T09:45:11.442Z,11.50
2023-03-25T09:46:14.972Z,11.30
2023-03-25T09:47:18.780Z,11.30
2023-03-25T09:48:33.801Z,11.30
2023-03-25T09:49:45.244Z,11.40
2023-03-25T09:50:47.682Z,11.50
2023-03-25T09:51:51.529Z,11.50
2023-03-25T09:53:07.543Z,11.50
2023-03-25T09:54:28.809Z,11.50
2023-03-25T09:55:36.124Z,11.60
2023-03-25T09:56:42.004Z,11.50
2023-03-25T09:57:51.474Z,11.30
2023-03-25T09:58:58.663Z,11.20
2023-03-25T10:00:06.975Z,11.00
2023-03-25T10:01:42.721Z,11.00
2023-03-25T10:02:52.343Z,10.90
2023-03-25T10:04:23.573Z,10.90
2023-03-25T10:05:38.443Z,10.90
2023-03-25T10:07:06.110Z,10.90
2023-03-25T10:08:24.524Z,10.80
2023-03-25T10:09:29.279Z,10.80
2023-03-25T10:11:28.210Z,10.80
2023-03-25T10:12:56.813Z,10.90
2023-03-25T10:14:08.380Z,10.90
2023-03-25T10:15:35.055Z,11.00
2023-03-25T10:16:48.136Z,11.10
2023-03-25T10:18:32.614Z,11.10
2023-03-25T10:19:51.318Z,11.30
2023-03-25T10:21:06.640Z,11.40
2023-03-25T10:22:21.936Z,11.50
2023-03-25T10:23:31.959Z,11.40
2023-03-25T10:24:56.885Z,11.40
2023-03-25T10:26:13.893Z,11.50
2023-03-25T10:27:15.705Z,11.50
2023-03-25T10:28:20.776Z,11.60
2023-03-25T10:29:31.712Z,11.50
2023-03-25T10:30:43.237Z,11.60
2023-03-25T10:32:00.609Z,11.60
2023-03-25T10:33:08.766Z,11.70
2023-03-25T10:34:26.164Z,11.80
2023-03-25T10:35:37.131Z,12.00
2023-03-25T10:36:45.168Z,12.10
2023-03-25T10:37:49.468Z,12.00
2023-03-25T10:38:55.204Z,12.20
2023-03-25T10:40:12.876Z,12.20
2023-03-25T10:41:31.096Z,12.10
2023-03-25T10:42:39.098Z,12.20
2023-03-25T10:43:42.257Z,12.40
2023-03-25T10:44:45.901Z,12.50
2023-03-25T10:45:49.676Z,12.50
2023-03-25T10:47:12.745Z,12.60
2023-03-25T10:48:33.222Z,12.70
2023-03-25T10:49:37.250Z,12.80
2023-03-25T10:50:41.610Z,12.80
2023-03-25T10:51:44.043Z,12.80
2023-03-25T10:52:48.464Z,12.80
2023-03-25T10:53:53.083Z,12.90
2023-03-25T10:54:56.830Z,12.90
2023-03-25T10:56:05.230Z,13.00
2023-03-25T10:57:10.118Z,13.00
2023-03-25T10:58:18.485Z,13.00
2023-03-25T10:59:55.729Z,13.00
2023-03-25T11:00:58.008Z,12.80
2023-03-25T11:02:00.929Z,12.60
2023-03-25T11:03:02.708Z,12.50
2023-03-25T11:04:08.118Z,12.50
2023-03-25T11:05:13.167Z,12.50
2023-03-25T11:06:39.848Z,12.50
2023-03-25T11:07:51.438Z,12.40
2023-03-25T11:09:08.455Z,12.50
2023-03-25T11:10:18.839Z,12.30
2023-03-25T11:11:20.689Z,12.30
2023-03-25T11:12:33.196Z,12.30
2023-03-25T11:13:41.367Z,12.30
2023-03-25T11:14:44.661Z,12.30
2023-03-25T11:15:47.771Z,12.30
2023-03-25T11:16:58.547Z,12.30
2023-03-25T11:18:14.830Z,12.30
2023-03-25T11:19:30.969Z,12.30
2023-03-25T11:20:41.229Z,12.30
2023-03-25T11:21:47.894Z,12.30
2023-03-25T11:22:53.451Z,12.20
2023-03-25T11:23:55.844Z,12.20
2023-03-25T11:25:16.897Z,12.20
2023-03-25T11:26:39.426Z,12.30
2023-03-25T11:27:49.857Z,12.20
2023-03-25T11:29:28.188Z,12.20
2023-03-25T11:30:29.737Z,12.20
2023-03-25T11:31:36.040Z,12.30
2023-03-25T11:32:39.958Z,12.40
2023-03-25T11:33:43.822Z,12.40
2023-03-25T11:34:50.506Z,12.50
2023-03-25T11:35:53.343Z,12.60
2023-03-25T11:37:02.069Z,12.70
2023-03-25T11:38:15.774Z,12.70
2023-03-25T11:39:23.533Z,12.80
2023-03-25T11:40:27.379Z,12.90
2023-03-25T11:41:32.622Z,13.10
2023-03-25T11:42:46.127Z,13.10
2023-03-25T11:43:50.166Z,13.20
2023-03-25T11:44:54.517Z,13.30
2023-03-25T11:45:56.250Z,13.40
2023-03-25T11:47:06.641Z,13.60
2023-03-25T11:48:16.833Z,13.80
2023-03-25T11:49:22.962Z,13.90
2023-03-25T11:50:29.626Z,14.10
2023-03-25T11:51:32.676Z,14.20
2023-03-25T11:52:45.003Z,14.00
2023-03-25T11:54:01.572Z,13.80
2023-03-25T11:55:03.901Z,13.90
2023-03-25T11:56:11.331Z,13.90
2023-03-25T11:57:18.620Z,13.90
2023-03-25T11:58:22.928Z,13.50
2023-03-25T11:59:27.228Z,13.40
2023-03-25T12:00:49.722Z,13.50
2023-03-25T12:02:21.558Z,13.70
2023-03-25T12:03:28.076Z,13.80
2023-03-25T12:04:30.551Z,13.80
2023-03-25T12:05:33.817Z,13.80
2023-03-25T12:06:35.973Z,14.00
2023-03-25T12:07:51.178Z,14.20
2023-03-25T12:08:57.827Z,14.10
2023-03-25T12:10:06.537Z,14.10
2023-03-25T12:11:14.757Z,14.20
2023-03-25T12:12:48.313Z,14.30
2023-03-25T12:13:58.496Z,14.10
2023-03-25T12:15:32.905Z,14.30
2023-03-25T12:16:38.556Z,14.50
2023-03-25T12:18:06.883Z,14.50
2023-03-25T12:19:12.219Z,14.40
2023-03-25T12:20:33.417Z,14.10
2023-03-25T12:21:37.922Z,13.90
2023-03-25T12:22:59.188Z,14.00
2023-03-25T12:24:34.581Z,14.20
2023-03-25T12:25:53.840Z,14.40
2023-03-25T12:27:28.941Z,14.50
2023-03-25T12:28:42.381Z,14.50
2023-03-25T12:30:19.971Z,14.40
2023-03-25T12:31:56.485Z,14.50
2023-03-25T12:33:24.217Z,14.60
2023-03-25T12:34:35.944Z,14.60
2023-03-25T12:36:06.960Z,14.70
2023-03-25T12:37:40.036Z,14.70
2023-03-25T12:39:18.776Z,14.60
2023-03-25T12:40:29.817Z,14.40
2023-03-25T12:41:38.394Z,14.20
2023-03-25T12:43:10.045Z,14.10
2023-03-25T12:44:37.789Z,14.20
2023-03-25T12:45:42.018Z,14.40
2023-03-25T12:46:56.035Z,14.50
2023-03-25T12:47:57.920Z,14.50
2023-03-25T12:49:28.367Z,14.50
2023-03-25T12:50:53.852Z,14.60
2023-03-25T12:52:01.543Z,14.70
2023-03-25T12:53:50.519Z,14.70
2023-03-25T12:55:07.284Z,14.70
2023-03-25T12:56:20.600Z,14.80
2023-03-25T12:57:45.599Z,14.80
2023-03-25T12:59:11.266Z,14.90
2023-03-25T13:00:21.926Z,15.00
2023-03-25T13:01:41.759Z,15.00
2023-03-25T13:03:05.079Z,14.90
2023-03-25T13:04:44.232Z,14.90
2023-03-25T13:06:30.652Z,15.00
2023-03-25T13:07:41.178Z,14.90
2023-03-25T13:09:02.675Z,14.80
2023-03-25T13:10:18.296Z,14.80
2023-03-25T13:11:49.675Z,14.80
2023-03-25T13:12:53.735Z,14.80
2023-03-25T13:13:59.408Z,14.70
2023-03-25T13:15:26.110Z,14.60
2023-03-25T13:16:34.458Z,14.20
2023-03-25T13:17:59.816Z,14.20
2023-03-25T13:19:10.978Z,14.10
2023-03-25T13:20:13.249Z,13.90
2023-03-25T13:21:27.707Z,13.90
2023-03-25T13:22:36.775Z,13.70
2023-03-25T13:23:40.854Z,13.50
2023-03-25T13:24:51.665Z,13.30
2023-03-25T13:26:14.597Z,13.10
2023-03-25T13:27:17.609Z,13.00
2023-03-25T13:28:26.205Z,12.90
2023-03-25T13:29:43.249Z,12.80
2023-03-25T13:30:48.606Z,12.80
2023-03-25T13:31:52.351Z,12.90
2023-03-25T13:32:58.800Z,13.00
2023-03-25T13:34:31.891Z,12.90
2023-03-25T13:35:47.018Z,12.90
2023-03-25T13:37:20.016Z,12.90
2023-03-25T13:38:36.533Z,12.90
2023-03-25T13:40:14.270Z,12.80
2023-03-25T13:41:28.398Z,12.70
2023-03-25T13:42:50.778Z,12.70
2023-03-25T13:44:14.959Z,12.70
2023-03-25T13:45:19.703Z,12.50
2023-03-25T13:46:30.061Z,12.40
2023-03-25T13:47:39.205Z,12.40
2023-03-25T13:48:46.014Z,12.50
2023-03-25T13:50:05.763Z,12.50
2023-03-25T13:51:08.109Z,12.40
2023-03-25T13:52:10.009Z,12.40
2023-03-25T13:53:27.897Z,12.50
2023-03-25T13:54:43.225Z,12.50
2023-03-25T13:55:55.648Z,12.50
2023-03-25T13:57:24.818Z,12.60
2023-03-25T13:59:11.706Z,12.70
2023-03-25T14:00:36.901Z,12.80
2023-03-25T14:02:19.523Z,13.00
2023-03-25T14:03:49.178Z,13.00
2023-03-25T14:05:24.705Z,13.20
2023-03-25T14:06:59.012Z,13.40
2023-03-25T14:08:20.863Z,13.50
2023-03-25T14:09:58.972Z,13.60
2023-03-25T14:11:34.033Z,13.60
2023-03-25T14:12:47.635Z,13.80
2023-03-25T14:14:03.483Z,13.80
2023-03-25T14:15:11.546Z,13.80
2023-03-25T14:16:17.640Z,13.80
2023-03-25T14:17:20.325Z,13.90
2023-03-25T14:18:22.018Z,13.90
2023-03-25T14:19:33.296Z,13.90
2023-03-25T14:20:40.382Z,13.90
2023-03-25T14:21:47.995Z,13.90
2023-03-25T14:22:50.393Z,14.00
2023-03-25T14:24:11.954Z,14.00
2023-03-25T14:25:43.595Z,14.00
2023-03-25T14:27:07.260Z,14.00
2023-03-25T14:29:45.036Z,14.20
2023-03-25T14:31:07.409Z,14.40
2023-03-25T14:32:09.534Z,14.50
2023-03-25T14:33:13.189Z,14.60
2023-03-25T14:34:24.523Z,14.70
2023-03-25T14:35:35.316Z,14.80
2023-03-25T14:36:40.006Z,14.80
2023-03-25T14:37:42.015Z,14.80
2023-03-25T14:38:51.848Z,14.80
2023-03-25T14:39:57.222Z,14.80
2023-03-25T14:41:03.754Z,14.70
2023-03-25T14:42:08.331Z,14.60
2023-03-25T14:43:47.026Z,14.60
2023-03-25T14:44:54.895Z,14.60
2023-03-25T14:46:13.435Z,14.50
2023-03-25T14:47:22.548Z,14.50
2023-03-25T14:48:30.715Z,14.50
2023-03-25T14:50:05.284Z,14.60